Record high temperature 35.2°C Record low temperature -28.5°C Record high gust 73.6 km/h Record high average 52.2 km/h Record daily rain 78.0 mm Record low windchill -39.6°C Record high barometer 1045.2 hPa Record low barometer 973.0 hPa
Daily high pressure 1007 hPa Daily low pressure 1004 hPa Daily low windchill 11.8°C Daily high heat index 15.3°C Daily high gust speed 12.2 kmh WNW Daily high average speed 6.5 kmh W
Beaconsfield Home Weather Data WMR-968
LAST READING AT TIME: 06:35 DATE: July 29 2014, time of next update: 06:40
Current WeatherCloudy/Dry Current Temperature 13.2°C (55.8°F), Apparent temp 11.8°C, Apparent temp solar 13.6°C
Maximum Temperature (since midnight)15.3°C at: 00:00 Minimum Temperature (since midnight)12.8°C at: 05:50
Average windspeed (ten minute)4.6 kmh (2.5 kts) Wind Direction (ten minute)W (267°)
Windchill Temperature 13.2°C Maximum Gust (last hour)11.5 kmh (6.2 kts) at: 05:48
Maximum Gust (since midnight)12.2 kmh (6.6 kts) at: 02:38 Maximum 1 minute average (since midnight)6.5 kmh (3.5 kts) at: 06:30
Rainfall (last hour)0.0 mm Rainfall (since midnight)0.0 mm (0.00 in.)---
Rainfall This month 57.6 mm (2.27 in.) Rainfall To date this year 486.6 mm (19.16 in.)
Maximum rain per minute (last hour)0.0 mm/min Maximum rain per hour (last 6 hours)0.0 mm/hour
Yesterdays rainfall 9.2 mm DewPoint 4.9°C (Wet Bulb :9.3°C )
Humidity 57 %, Humidex 12.4°C Barometer corrected to msl1007 hPa
Pressure change +1 hPa (last hour) Trend (last hour)RISING SLOWLY
Pressure change (last 12 hours)+5 hPa Pressure change (last 6 hours)+3 hPa
Current Indoor Temp. 23.7°C
Current Indoor Hum. 44%
Current 00:00 hours of sunshine today, current sky: Cloudy
Sunshine hours for the year: 29:58 hrs Sunshine hours for the month: 12:44 hrs
Current evapotranspiration rate 1.0 mm per day. Yesterday's reading 2.4




Weather report/warning/Metars

Montreal / Pierre Elliot Trudeau International Airport, Que, Canada (CYUL) 45-28N 073-45W 36M
Jul 29, 2014 - 06:00 AM EDT / 2014.07.29 1000 UTC
Wind: from the WNW (290 degrees) at 9 MPH (8 KT):0
Visibility: 30 mile(s):0
Sky conditions: mostly clear
Temperature: 53 F (12 C)
Dew Point: 50 F (10 C)
Relative Humidity: 87%
Pressure (altimeter): 29.73 in. Hg (1006 hPa)
ob: CYUL 291000Z 29008KT 30SM FEW085 FEW240 12/10 A2973 RMK AC1CI2 AC TR SLP067
cycle: 10
Sherbrooke, Que., Canada (CYSC) 45-24N 071-53W
Jul 29, 2014 - 06:00 AM EDT / 2014.07.29 1000 UTC
Wind: from the W (260 degrees) at 8 MPH (7 KT):0
Visibility: 9 mile(s):0
Sky conditions: overcast
Temperature: 53 F (12 C)
Dew Point: 51 F (11 C)
Relative Humidity: 93%
Pressure (altimeter): 29.67 in. Hg (1004 hPa)
ob: CYSC 291000Z AUTO 26007KT 9SM OVC020 12/11 A2967 RMK SLP048 DENSITY ALT 900FT
cycle: 10
St Jovite Automatic Weather Reporting System , Canada (CWJT) 46-04N 074-32W
Jul 29, 2014 - 06:00 AM EDT / 2014.07.29 1000 UTC
Wind: Calm:0
Temperature: 42.3 F (5.7 C)
Dew Point: 41.9 F (5.5 C)
Relative Humidity: 98%
Pressure tendency: 0.03 inches (1.1 hPa) higher than three hours ago
ob: CWJT 291000Z AUTO 00000KT 06/06 RMK AO1 SLP078 T00570055 53011
cycle: 10
Ste Anne De Bell 1, Canada (CWVQ) 45-26N 073-56W
Jul 29, 2014 - 06:00 AM EDT / 2014.07.29 1000 UTC
Wind: from the WNW (300 degrees) at 10 MPH (9 KT):0
Temperature: 55.4 F (13.0 C)
Dew Point: 50.2 F (10.1 C)
Relative Humidity: 82%
Pressure tendency: 0.05 inches (1.7 hPa) higher than three hours ago
ob: CWVQ 291000Z AUTO 30009KT 13/10 RMK AO1 SLP068 T01300101 51017
cycle: 10
Montreal / Mirabel, Canada (CYMX) 45-41N 074-02W
Jul 29, 2014 - 06:00 AM EDT / 2014.07.29 1000 UTC
Wind: from the WNW (290 degrees) at 6 MPH (5 KT):0
Visibility: 30 mile(s):0
Sky conditions: mostly cloudy
Temperature: 50 F (10 C)
Dew Point: 48 F (9 C)
Relative Humidity: 93%
Pressure (altimeter): 29.75 in. Hg (1007 hPa)
ob: CYMX 291000Z 29005KT 30SM FEW085 SCT220 BKN260 10/09 A2975 RMK AC1CI4CI3 AC TR SLP074
cycle: 10
L'Acadie, Canada (CWIZ) 45-18N 073-21W
Jul 29, 2014 - 06:00 AM EDT / 2014.07.29 1000 UTC
Wind: from the W (270 degrees) at 5 MPH (4 KT):0
Temperature: 53.2 F (11.8 C)
Dew Point: 51.6 F (10.9 C)
Relative Humidity: 94%
ob: CWIZ 291000Z AUTO 27004KT 12/11 RMK AO1 T01180109
cycle: 10
St Anicet, Canada (CWBZ) 45-07N 074-17W 49M
Jul 29, 2014 - 06:00 AM EDT / 2014.07.29 1000 UTC
Wind: from the SW (220 degrees) at 3 MPH (3 KT):0
Temperature: 52.3 F (11.3 C)
Dew Point: 50.5 F (10.3 C)
Relative Humidity: 93%
Pressure tendency: 0.06 inches (2.0 hPa) higher than three hours ago
ob: CWBZ 291000Z AUTO 22003KT 11/10 RMK AO1 SLP078 T01130103 53020
cycle: 10
Mount Washington, NH, United States (KMWN) 44-16N 071-18W 1910M
Jul 29, 2014 - 05:49 AM EDT / 2014.07.29 0949 UTC
Wind: from the WNW (300 degrees) at 37 MPH (32 KT):0
Visibility: 1/16 mile(s):0
Sky conditions: obscured
Weather: fog
Temperature: 41 F (5 C)
Dew Point: 41 F (5 C)
Relative Humidity: 100%
ob: KMWN 290949Z 30032KT 1/16SM FG VV000 05/05 RMK 
cycle: 10
Vancouver International Air-Port, B. C., Canada (CYVR) 49-11N 123-10W 2M
Jul 29, 2014 - 06:00 AM EDT / 2014.07.29 1000 UTC
Wind: from the SE (140 degrees) at 5 MPH (4 KT):0
Visibility: 15 mile(s):0
Sky conditions: clear
Temperature: 62 F (17 C)
Dew Point: 57 F (14 C)
Relative Humidity: 82%
Pressure (altimeter): 30.08 in. Hg (1018 hPa)
ob: CYVR 291000Z 14004KT 15SM SKC 17/14 A3008 RMK SLP186
cycle: 10



The data is logged at two minute intervals, but there is data recorded every minute.

Use the RELOAD facility on your browser to retrieve the latest data.

Click here for a daily update of the averages/extremes to date for the month

Click here for Real Time Weather



Created by "Weather Display" software version 10.37R Build 51 at this start time/date 20:39 2014-07-03